Munin Explorer — C4XX2 — position and weather

sailwx.info

Track history (hours):
 
Tides and Currents Weather Stations Pressure Air Temp Water Temp Dewpoint Dewpoint Depression Visibility Wind Speed Wind Dir Waves Ship Positions

Munin Explorer

Last reported at 2015-Jun-14 07:33 UTC. Time now 2015-Sep-05 05:48 UTC.
Position S 25°29' W 042°43'.
Warning: this ship's position is months out of date.

Length 60 m; draft 7.2 m.

Type: Other ship. MMSI: 210228000.

Date/timePositionNaut miles runAvg speedWind from/ knotsBaromVisibWave heightAir tempDewpointWater temp
2015-Jun-14 07:33S 25°29' W 042°43'14 0.3
2015-Jun-12 05:28S 25°42' W 042°48'1 1.3
2015-Jun-12 04:33S 25°41' W 042°47'3 3.1
2015-Jun-12 03:31S 25°39' W 042°50'3 3.1
2015-Jun-12 02:31S 25°37' W 042°52'13 1.6
2015-Jun-11 18:19S 25°48' W 042°44'1 1.5
2015-Jun-11 17:28S 25°49' W 042°44'1 0.4
2015-Jun-11 16:13S 25°49' W 042°44'2 1.7
2015-Jun-11 15:10S 25°47' W 042°44'1 1.7
2015-Jun-11 14:25S 25°45' W 042°45'1 1.5
2015-Jun-11 13:33S 25°44' W 042°45'3 1.2
2015-Jun-11 11:20S 25°43' W 042°47'7 3.6
2015-Jun-11 09:15S 25°36' W 042°43'3 3.6
2015-Jun-11 08:23S 25°38' W 042°46'4 3.7
2015-Jun-11 07:21S 25°40' W 042°49'8 0.6
2015-Jun-10 18:33S 25°33' W 042°45'5 4.4
2015-Jun-10 17:31S 25°29' W 042°42'3 2.4
2015-Jun-10 16:18S 25°31' W 042°44'3 4.3
2015-Jun-10 15:33S 25°34' W 042°46'1 0.1
2015-Jun-10 09:23S 25°33' W 042°46'4 4.4
2015-Jun-10 08:32S 25°37' W 042°48'1 0.4
2015-Jun-10 07:14S 25°36' W 042°48'3 4.8
2015-Jun-10 06:33S 25°33' W 042°46'5 4.7
2015-Jun-10 05:33S 25°29' W 042°44'3 2.6
2015-Jun-10 04:30S 25°32' W 042°45'8 3.9
2015-Jun-10 02:33S 25°38' W 042°49'5 5.0
2015-Jun-10 01:33S 25°34' W 042°46'6 4.3
2015-Jun-10 00:07S 25°29' W 042°43'3 4.5
2015-Jun-09 23:33S 25°31' W 042°44'4 4.5
2015-Jun-09 22:33S 25°35' W 042°47'4 4.4
2015-Jun-09 21:33S 25°39' W 042°49'4 3.7
2015-Jun-09 20:33S 25°35' W 042°47'5 4.8
2015-Jun-09 19:33S 25°31' W 042°45'4 4.2
2015-Jun-09 18:33S 25°28' W 042°42'4 4.4
2015-Jun-09 17:33S 25°31' W 042°45'4 4.2
2015-Jun-09 16:33S 25°35' W 042°47'4 4.1
2015-Jun-09 15:33S 25°39' W 042°49'2 2.0
2015-Jun-09 14:33S 25°40' W 042°51'4 2.0
2015-Jun-09 12:33S 25°38' W 042°47'3 3.5
2015-Jun-09 11:33S 25°40' W 042°50'1 0.4
2015-Jun-09 10:05S 25°41' W 042°50'2 3.6
2015-Jun-09 09:33S 25°39' W 042°49'4 3.7
2015-Jun-09 08:33S 25°36' W 042°47'2 2.2
2015-Jun-09 07:29S 25°38' W 042°49'1 1.6
2015-Jun-09 06:33S 25°36' W 042°48'9 4.4
2015-Jun-09 04:33S 25°29' W 042°43'7 1.1
2015-Jun-08 21:31S 25°35' W 042°47'8 0.5
2015-Jun-08 05:26S 25°29' W 042°43'2 0.2
2015-Jun-07 18:33S 25°28' W 042°45'  
Track history (hours):
 
Tides and Currents Weather Stations Pressure Air Temp Water Temp Dewpoint Dewpoint Depression Visibility Wind Speed Wind Dir Waves Ship Positions

Munin Explorer

Last reported at 2015-Jun-14 07:33 UTC. Time now 2015-Sep-05 05:48 UTC.
Position S 25°29' W 042°43'.
Warning: this ship's position is months out of date.

Length 60 m; draft 7.2 m.

Type: Other ship. MMSI: 210228000.

Date/timePositionNaut miles runAvg speedWind from/ knotsBaromVisibWave heightAir tempDewpointWater temp
2015-Jun-14 07:33S 25°29' W 042°43'14 0.3
2015-Jun-12 05:28S 25°42' W 042°48'1 1.3
2015-Jun-12 04:33S 25°41' W 042°47'3 3.1
2015-Jun-12 03:31S 25°39' W 042°50'3 3.1
2015-Jun-12 02:31S 25°37' W 042°52'13 1.6
2015-Jun-11 18:19S 25°48' W 042°44'1 1.5
2015-Jun-11 17:28S 25°49' W 042°44'1 0.4
2015-Jun-11 16:13S 25°49' W 042°44'2 1.7
2015-Jun-11 15:10S 25°47' W 042°44'1 1.7
2015-Jun-11 14:25S 25°45' W 042°45'1 1.5
2015-Jun-11 13:33S 25°44' W 042°45'3 1.2
2015-Jun-11 11:20S 25°43' W 042°47'7 3.6
2015-Jun-11 09:15S 25°36' W 042°43'3 3.6
2015-Jun-11 08:23S 25°38' W 042°46'4 3.7
2015-Jun-11 07:21S 25°40' W 042°49'8 0.6
2015-Jun-10 18:33S 25°33' W 042°45'5 4.4
2015-Jun-10 17:31S 25°29' W 042°42'3 2.4
2015-Jun-10 16:18S 25°31' W 042°44'3 4.3
2015-Jun-10 15:33S 25°34' W 042°46'1 0.1
2015-Jun-10 09:23S 25°33' W 042°46'4 4.4
2015-Jun-10 08:32S 25°37' W 042°48'1 0.4
2015-Jun-10 07:14S 25°36' W 042°48'3 4.8
2015-Jun-10 06:33S 25°33' W 042°46'5 4.7
2015-Jun-10 05:33S 25°29' W 042°44'3 2.6
2015-Jun-10 04:30S 25°32' W 042°45'8 3.9
2015-Jun-10 02:33S 25°38' W 042°49'5 5.0
2015-Jun-10 01:33S 25°34' W 042°46'6 4.3
2015-Jun-10 00:07S 25°29' W 042°43'3 4.5
2015-Jun-09 23:33S 25°31' W 042°44'4 4.5
2015-Jun-09 22:33S 25°35' W 042°47'4 4.4
2015-Jun-09 21:33S 25°39' W 042°49'4 3.7
2015-Jun-09 20:33S 25°35' W 042°47'5 4.8
2015-Jun-09 19:33S 25°31' W 042°45'4 4.2
2015-Jun-09 18:33S 25°28' W 042°42'4 4.4
2015-Jun-09 17:33S 25°31' W 042°45'4 4.2
2015-Jun-09 16:33S 25°35' W 042°47'4 4.1
2015-Jun-09 15:33S 25°39' W 042°49'2 2.0
2015-Jun-09 14:33S 25°40' W 042°51'4 2.0
2015-Jun-09 12:33S 25°38' W 042°47'3 3.5
2015-Jun-09 11:33S 25°40' W 042°50'1 0.4
2015-Jun-09 10:05S 25°41' W 042°50'2 3.6
2015-Jun-09 09:33S 25°39' W 042°49'4 3.7
2015-Jun-09 08:33S 25°36' W 042°47'2 2.2
2015-Jun-09 07:29S 25°38' W 042°49'1 1.6
2015-Jun-09 06:33S 25°36' W 042°48'9 4.4
2015-Jun-09 04:33S 25°29' W 042°43'7 1.1
2015-Jun-08 21:31S 25°35' W 042°47'8 0.5
2015-Jun-08 05:26S 25°29' W 042°43'2 0.2
2015-Jun-07 18:33S 25°28' W 042°45'  

Dump ship's entire track history